sensor_id;sensor_type;location;lat;lon;timestamp;temperature;humidity
16158;DHT22;8184;60.256;18.694;2023-11-19T00:02:01;-3.80;99.90
16158;DHT22;8184;60.256;18.694;2023-11-19T00:04:29;-3.70;99.90
16158;DHT22;8184;60.256;18.694;2023-11-19T00:06:58;-3.70;99.90
16158;DHT22;8184;60.256;18.694;2023-11-19T00:09:30;-3.80;99.90
16158;DHT22;8184;60.256;18.694;2023-11-19T00:11:59;-3.70;99.90
16158;DHT22;8184;60.256;18.694;2023-11-19T00:14:28;-3.70;99.90
16158;DHT22;8184;60.256;18.694;2023-11-19T00:16:56;-3.60;99.90
16158;DHT22;8184;60.256;18.694;2023-11-19T00:19:26;-3.60;99.90
16158;DHT22;8184;60.256;18.694;2023-11-19T00:21:54;-3.60;99.90
16158;DHT22;8184;60.256;18.694;2023-11-19T00:24:23;-3.50;99.90
16158;DHT22;8184;60.256;18.694;2023-11-19T00:26:51;-3.50;99.90
16158;DHT22;8184;60.256;18.694;2023-11-19T00:29:19;-3.50;99.90
16158;DHT22;8184;60.256;18.694;2023-11-19T00:31:47;-3.50;99.90
16158;DHT22;8184;60.256;18.694;2023-11-19T00:34:16;-3.50;99.90
16158;DHT22;8184;60.256;18.694;2023-11-19T00:36:49;-3.50;99.90
16158;DHT22;8184;60.256;18.694;2023-11-19T00:39:17;-3.60;99.90
16158;DHT22;8184;60.256;18.694;2023-11-19T00:41:48;-3.60;99.90
16158;DHT22;8184;60.256;18.694;2023-11-19T00:44:16;-3.60;99.90
16158;DHT22;8184;60.256;18.694;2023-11-19T00:46:46;-3.70;99.90
16158;DHT22;8184;60.256;18.694;2023-11-19T00:49:14;-3.70;99.90
16158;DHT22;8184;60.256;18.694;2023-11-19T00:51:43;-3.60;99.90
16158;DHT22;8184;60.256;18.694;2023-11-19T00:54:13;-3.70;99.90
16158;DHT22;8184;60.256;18.694;2023-11-19T00:56:42;-3.60;99.90
16158;DHT22;8184;60.256;18.694;2023-11-19T00:59:11;-3.70;99.90
16158;DHT22;8184;60.256;18.694;2023-11-19T01:01:42;-3.70;99.90
16158;DHT22;8184;60.256;18.694;2023-11-19T01:04:13;-3.70;99.90
16158;DHT22;8184;60.256;18.694;2023-11-19T01:06:41;-3.60;99.90
16158;DHT22;8184;60.256;18.694;2023-11-19T01:09:17;-3.60;99.90
16158;DHT22;8184;60.256;18.694;2023-11-19T01:11:45;-3.60;99.90
16158;DHT22;8184;60.256;18.694;2023-11-19T01:14:13;-3.70;99.90
16158;DHT22;8184;60.256;18.694;2023-11-19T01:16:42;-3.60;99.90
16158;DHT22;8184;60.256;18.694;2023-11-19T01:19:11;-3.70;99.90
16158;DHT22;8184;60.256;18.694;2023-11-19T01:21:44;-3.70;99.90
16158;DHT22;8184;60.256;18.694;2023-11-19T01:24:12;-3.70;99.90
16158;DHT22;8184;60.256;18.694;2023-11-19T01:26:42;-3.70;99.90
16158;DHT22;8184;60.256;18.694;2023-11-19T01:29:12;-3.70;99.90
16158;DHT22;8184;60.256;18.694;2023-11-19T01:31:41;-3.70;99.90
16158;DHT22;8184;60.256;18.694;2023-11-19T01:34:10;-3.70;99.90
16158;DHT22;8184;60.256;18.694;2023-11-19T01:36:39;-3.70;99.90
16158;DHT22;8184;60.256;18.694;2023-11-19T01:39:06;-3.70;99.90
16158;DHT22;8184;60.256;18.694;2023-11-19T01:41:34;-3.70;99.90
16158;DHT22;8184;60.256;18.694;2023-11-19T01:44:05;-3.70;99.90
16158;DHT22;8184;60.256;18.694;2023-11-19T01:46:33;-3.80;99.90
16158;DHT22;8184;60.256;18.694;2023-11-19T01:49:02;-3.70;99.90
16158;DHT22;8184;60.256;18.694;2023-11-19T01:51:33;-3.70;99.90
16158;DHT22;8184;60.256;18.694;2023-11-19T01:54:01;-3.70;99.90
16158;DHT22;8184;60.256;18.694;2023-11-19T01:56:30;-3.70;99.90
16158;DHT22;8184;60.256;18.694;2023-11-19T01:59:00;-3.70;99.90
16158;DHT22;8184;60.256;18.694;2023-11-19T02:01:30;-3.80;99.90
16158;DHT22;8184;60.256;18.694;2023-11-19T02:04:01;-3.80;99.90
16158;DHT22;8184;60.256;18.694;2023-11-19T02:06:31;-3.80;99.90
16158;DHT22;8184;60.256;18.694;2023-11-19T02:09:01;-3.80;99.90
16158;DHT22;8184;60.256;18.694;2023-11-19T02:11:38;-3.90;99.90
16158;DHT22;8184;60.256;18.694;2023-11-19T02:14:07;-3.80;99.90
16158;DHT22;8184;60.256;18.694;2023-11-19T02:16:37;-3.90;99.90
16158;DHT22;8184;60.256;18.694;2023-11-19T02:19:05;-3.80;99.90
16158;DHT22;8184;60.256;18.694;2023-11-19T02:21:35;-3.80;99.90
16158;DHT22;8184;60.256;18.694;2023-11-19T02:24:03;-3.80;99.90
16158;DHT22;8184;60.256;18.694;2023-11-19T02:26:37;-3.80;99.90
16158;DHT22;8184;60.256;18.694;2023-11-19T02:29:08;-3.80;99.90
16158;DHT22;8184;60.256;18.694;2023-11-19T02:31:40;-3.80;99.90
16158;DHT22;8184;60.256;18.694;2023-11-19T02:34:09;-3.80;99.90
16158;DHT22;8184;60.256;18.694;2023-11-19T02:36:39;-3.70;99.90
16158;DHT22;8184;60.256;18.694;2023-11-19T02:39:08;-3.80;99.90
16158;DHT22;8184;60.256;18.694;2023-11-19T02:41:39;-3.80;99.90
16158;DHT22;8184;60.256;18.694;2023-11-19T02:44:09;-3.80;99.90
16158;DHT22;8184;60.256;18.694;2023-11-19T02:46:38;-3.80;99.90
16158;DHT22;8184;60.256;18.694;2023-11-19T02:49:09;-3.80;99.90
16158;DHT22;8184;60.256;18.694;2023-11-19T02:51:37;-3.70;99.90
16158;DHT22;8184;60.256;18.694;2023-11-19T02:54:05;-3.70;99.90
16158;DHT22;8184;60.256;18.694;2023-11-19T02:56:34;-3.70;99.90
16158;DHT22;8184;60.256;18.694;2023-11-19T02:59:04;-3.70;99.90
16158;DHT22;8184;60.256;18.694;2023-11-19T03:01:44;-3.70;99.90
16158;DHT22;8184;60.256;18.694;2023-11-19T03:04:17;-3.80;99.90
16158;DHT22;8184;60.256;18.694;2023-11-19T03:06:47;-3.70;99.90
16158;DHT22;8184;60.256;18.694;2023-11-19T03:09:15;-3.70;99.90
16158;DHT22;8184;60.256;18.694;2023-11-19T03:11:43;-3.70;99.90
16158;DHT22;8184;60.256;18.694;2023-11-19T03:14:13;-3.70;99.90
16158;DHT22;8184;60.256;18.694;2023-11-19T03:16:43;-3.70;99.90
16158;DHT22;8184;60.256;18.694;2023-11-19T03:19:13;-3.70;99.90
16158;DHT22;8184;60.256;18.694;2023-11-19T03:21:51;-3.80;99.90
16158;DHT22;8184;60.256;18.694;2023-11-19T03:24:20;-3.80;99.90
16158;DHT22;8184;60.256;18.694;2023-11-19T03:26:49;-3.80;99.90
16158;DHT22;8184;60.256;18.694;2023-11-19T03:29:18;-3.80;99.90
16158;DHT22;8184;60.256;18.694;2023-11-19T03:31:47;-3.80;99.90
16158;DHT22;8184;60.256;18.694;2023-11-19T03:34:16;-3.80;99.90
16158;DHT22;8184;60.256;18.694;2023-11-19T03:36:45;-3.80;99.90
16158;DHT22;8184;60.256;18.694;2023-11-19T03:39:15;-3.80;99.90
16158;DHT22;8184;60.256;18.694;2023-11-19T03:41:45;-3.80;99.90
16158;DHT22;8184;60.256;18.694;2023-11-19T03:44:14;-3.80;99.90
16158;DHT22;8184;60.256;18.694;2023-11-19T03:46:42;-3.80;99.90
16158;DHT22;8184;60.256;18.694;2023-11-19T03:49:12;-3.80;99.90
16158;DHT22;8184;60.256;18.694;2023-11-19T03:51:40;-3.80;99.90
16158;DHT22;8184;60.256;18.694;2023-11-19T03:54:08;-3.80;99.90
16158;DHT22;8184;60.256;18.694;2023-11-19T03:56:38;-3.80;99.90
16158;DHT22;8184;60.256;18.694;2023-11-19T03:59:06;-3.90;99.90
16158;DHT22;8184;60.256;18.694;2023-11-19T04:01:35;-3.90;99.90
16158;DHT22;8184;60.256;18.694;2023-11-19T04:04:04;-3.90;99.90
16158;DHT22;8184;60.256;18.694;2023-11-19T04:06:34;-3.90;99.90
16158;DHT22;8184;60.256;18.694;2023-11-19T04:09:02;-3.90;99.90
16158;DHT22;8184;60.256;18.694;2023-11-19T04:11:31;-3.90;99.90
16158;DHT22;8184;60.256;18.694;2023-11-19T04:13:59;-3.90;99.90
16158;DHT22;8184;60.256;18.694;2023-11-19T04:16:27;-3.90;99.90
16158;DHT22;8184;60.256;18.694;2023-11-19T04:18:56;-4.00;99.90
16158;DHT22;8184;60.256;18.694;2023-11-19T04:21:25;-4.10;99.90
16158;DHT22;8184;60.256;18.694;2023-11-19T04:23:55;-4.00;99.90
16158;DHT22;8184;60.256;18.694;2023-11-19T04:26:23;-4.10;99.90
16158;DHT22;8184;60.256;18.694;2023-11-19T04:28:51;-4.10;99.90
16158;DHT22;8184;60.256;18.694;2023-11-19T04:31:20;-4.10;99.90
16158;DHT22;8184;60.256;18.694;2023-11-19T04:33:50;-4.00;99.90
16158;DHT22;8184;60.256;18.694;2023-11-19T04:36:19;-4.00;99.90
16158;DHT22;8184;60.256;18.694;2023-11-19T04:38:51;-4.10;99.90
16158;DHT22;8184;60.256;18.694;2023-11-19T04:41:20;-4.10;99.90
16158;DHT22;8184;60.256;18.694;2023-11-19T04:43:50;-4.10;99.90
16158;DHT22;8184;60.256;18.694;2023-11-19T04:46:18;-4.10;99.90
16158;DHT22;8184;60.256;18.694;2023-11-19T04:48:48;-4.20;99.90
16158;DHT22;8184;60.256;18.694;2023-11-19T04:51:16;-4.20;99.90
16158;DHT22;8184;60.256;18.694;2023-11-19T04:53:44;-4.20;99.90
16158;DHT22;8184;60.256;18.694;2023-11-19T04:56:13;-4.30;99.90
16158;DHT22;8184;60.256;18.694;2023-11-19T04:58:43;-4.30;99.90
16158;DHT22;8184;60.256;18.694;2023-11-19T05:01:13;-4.40;99.90
16158;DHT22;8184;60.256;18.694;2023-11-19T05:03:45;-4.40;99.90
16158;DHT22;8184;60.256;18.694;2023-11-19T05:06:14;-4.40;99.90
16158;DHT22;8184;60.256;18.694;2023-11-19T05:08:42;-4.40;99.90
16158;DHT22;8184;60.256;18.694;2023-11-19T05:11:10;-4.40;99.90
16158;DHT22;8184;60.256;18.694;2023-11-19T05:13:40;-4.50;99.90
16158;DHT22;8184;60.256;18.694;2023-11-19T05:16:10;-4.50;99.90
16158;DHT22;8184;60.256;18.694;2023-11-19T05:18:41;-4.60;99.90
16158;DHT22;8184;60.256;18.694;2023-11-19T05:21:10;-4.80;99.90
16158;DHT22;8184;60.256;18.694;2023-11-19T05:23:38;-4.80;99.90
16158;DHT22;8184;60.256;18.694;2023-11-19T05:26:08;-4.90;99.90
16158;DHT22;8184;60.256;18.694;2023-11-19T05:28:37;-4.90;99.90
16158;DHT22;8184;60.256;18.694;2023-11-19T05:31:06;-4.90;99.90
16158;DHT22;8184;60.256;18.694;2023-11-19T05:33:36;-4.90;99.90
16158;DHT22;8184;60.256;18.694;2023-11-19T05:36:04;-4.90;99.90
16158;DHT22;8184;60.256;18.694;2023-11-19T05:38:35;-4.90;99.90
16158;DHT22;8184;60.256;18.694;2023-11-19T05:41:04;-4.90;99.90
16158;DHT22;8184;60.256;18.694;2023-11-19T05:43:32;-4.90;99.90
16158;DHT22;8184;60.256;18.694;2023-11-19T05:46:01;-5.00;99.90
16158;DHT22;8184;60.256;18.694;2023-11-19T05:48:29;-5.00;99.90
16158;DHT22;8184;60.256;18.694;2023-11-19T05:50:59;-5.00;99.90
16158;DHT22;8184;60.256;18.694;2023-11-19T05:53:27;-5.00;99.90
16158;DHT22;8184;60.256;18.694;2023-11-19T05:55:56;-5.00;99.90
16158;DHT22;8184;60.256;18.694;2023-11-19T05:58:24;-5.00;99.90
16158;DHT22;8184;60.256;18.694;2023-11-19T06:00:55;-5.00;99.90
16158;DHT22;8184;60.256;18.694;2023-11-19T06:03:27;-5.00;99.90
16158;DHT22;8184;60.256;18.694;2023-11-19T06:05:55;-4.90;99.90
16158;DHT22;8184;60.256;18.694;2023-11-19T06:08:25;-5.10;99.90
16158;DHT22;8184;60.256;18.694;2023-11-19T06:10:53;-5.10;99.90
16158;DHT22;8184;60.256;18.694;2023-11-19T06:13:23;-5.10;99.90
16158;DHT22;8184;60.256;18.694;2023-11-19T06:15:52;-5.10;99.90
16158;DHT22;8184;60.256;18.694;2023-11-19T06:18:21;-5.10;99.90
16158;DHT22;8184;60.256;18.694;2023-11-19T06:20:50;-5.10;99.90
16158;DHT22;8184;60.256;18.694;2023-11-19T06:23:18;-5.10;99.90
16158;DHT22;8184;60.256;18.694;2023-11-19T06:25:50;-5.10;99.90
16158;DHT22;8184;60.256;18.694;2023-11-19T06:28:18;-5.10;99.90
16158;DHT22;8184;60.256;18.694;2023-11-19T06:30:47;-5.10;99.90
16158;DHT22;8184;60.256;18.694;2023-11-19T06:33:17;-5.00;99.90
16158;DHT22;8184;60.256;18.694;2023-11-19T06:35:48;-5.00;99.90
16158;DHT22;8184;60.256;18.694;2023-11-19T06:38:17;-5.10;99.90
16158;DHT22;8184;60.256;18.694;2023-11-19T06:40:45;-5.00;99.90
16158;DHT22;8184;60.256;18.694;2023-11-19T06:43:18;-5.10;99.90
16158;DHT22;8184;60.256;18.694;2023-11-19T06:45:47;-5.20;99.90
16158;DHT22;8184;60.256;18.694;2023-11-19T06:48:15;-5.20;99.90
16158;DHT22;8184;60.256;18.694;2023-11-19T06:50:43;-5.20;99.90
16158;DHT22;8184;60.256;18.694;2023-11-19T06:53:12;-5.10;99.90
16158;DHT22;8184;60.256;18.694;2023-11-19T06:55:40;-5.20;99.90
16158;DHT22;8184;60.256;18.694;2023-11-19T06:58:08;-5.20;99.90
16158;DHT22;8184;60.256;18.694;2023-11-19T07:00:38;-5.10;99.90
16158;DHT22;8184;60.256;18.694;2023-11-19T07:03:06;-5.10;99.90
16158;DHT22;8184;60.256;18.694;2023-11-19T07:05:36;-5.20;99.90
16158;DHT22;8184;60.256;18.694;2023-11-19T07:08:07;-5.10;99.90
16158;DHT22;8184;60.256;18.694;2023-11-19T07:10:38;-5.10;99.90
16158;DHT22;8184;60.256;18.694;2023-11-19T07:13:06;-5.10;99.90
16158;DHT22;8184;60.256;18.694;2023-11-19T07:15:35;-5.10;99.90
16158;DHT22;8184;60.256;18.694;2023-11-19T07:18:04;-5.10;99.90
16158;DHT22;8184;60.256;18.694;2023-11-19T07:20:33;-5.00;99.90
16158;DHT22;8184;60.256;18.694;2023-11-19T07:23:01;-5.10;99.90
16158;DHT22;8184;60.256;18.694;2023-11-19T07:25:29;-5.10;99.90
16158;DHT22;8184;60.256;18.694;2023-11-19T07:27:58;-5.00;99.90
16158;DHT22;8184;60.256;18.694;2023-11-19T07:30:26;-5.10;99.90
16158;DHT22;8184;60.256;18.694;2023-11-19T07:32:55;-5.10;99.90
16158;DHT22;8184;60.256;18.694;2023-11-19T07:35:25;-5.10;99.90
16158;DHT22;8184;60.256;18.694;2023-11-19T07:37:53;-5.10;99.90
16158;DHT22;8184;60.256;18.694;2023-11-19T07:40:24;-5.10;99.90
16158;DHT22;8184;60.256;18.694;2023-11-19T07:42:54;-5.10;99.90
16158;DHT22;8184;60.256;18.694;2023-11-19T07:45:22;-5.00;99.90
16158;DHT22;8184;60.256;18.694;2023-11-19T07:47:50;-5.10;99.90
16158;DHT22;8184;60.256;18.694;2023-11-19T07:50:19;-4.90;99.90
16158;DHT22;8184;60.256;18.694;2023-11-19T07:52:48;-4.90;99.90
16158;DHT22;8184;60.256;18.694;2023-11-19T07:55:17;-4.90;99.90
16158;DHT22;8184;60.256;18.694;2023-11-19T07:57:46;-4.90;99.90
16158;DHT22;8184;60.256;18.694;2023-11-19T08:00:19;-4.80;99.90
16158;DHT22;8184;60.256;18.694;2023-11-19T08:02:48;-4.80;99.90
16158;DHT22;8184;60.256;18.694;2023-11-19T08:05:16;-4.80;99.90
16158;DHT22;8184;60.256;18.694;2023-11-19T08:07:45;-4.80;99.90
16158;DHT22;8184;60.256;18.694;2023-11-19T08:10:14;-4.80;99.90
16158;DHT22;8184;60.256;18.694;2023-11-19T08:12:43;-4.80;99.90
16158;DHT22;8184;60.256;18.694;2023-11-19T08:15:11;-4.80;99.90
16158;DHT22;8184;60.256;18.694;2023-11-19T08:17:39;-4.70;99.90
16158;DHT22;8184;60.256;18.694;2023-11-19T08:20:10;-4.70;99.90
16158;DHT22;8184;60.256;18.694;2023-11-19T08:22:41;-4.70;99.90
16158;DHT22;8184;60.256;18.694;2023-11-19T08:25:09;-4.70;99.90
16158;DHT22;8184;60.256;18.694;2023-11-19T08:27:39;-4.80;99.90
16158;DHT22;8184;60.256;18.694;2023-11-19T08:30:08;-4.90;99.90
16158;DHT22;8184;60.256;18.694;2023-11-19T08:32:36;-4.80;99.90
16158;DHT22;8184;60.256;18.694;2023-11-19T08:35:04;-4.80;99.90
16158;DHT22;8184;60.256;18.694;2023-11-19T08:37:33;-4.70;99.90
16158;DHT22;8184;60.256;18.694;2023-11-19T08:40:04;-4.70;99.90
16158;DHT22;8184;60.256;18.694;2023-11-19T08:42:33;-4.70;99.90
16158;DHT22;8184;60.256;18.694;2023-11-19T08:45:04;-4.70;99.90
16158;DHT22;8184;60.256;18.694;2023-11-19T08:47:32;-4.80;99.90
16158;DHT22;8184;60.256;18.694;2023-11-19T08:50:03;-4.70;99.90
16158;DHT22;8184;60.256;18.694;2023-11-19T08:52:32;-4.70;99.90
16158;DHT22;8184;60.256;18.694;2023-11-19T08:55:01;-4.70;99.90
16158;DHT22;8184;60.256;18.694;2023-11-19T08:57:32;-4.60;99.90
16158;DHT22;8184;60.256;18.694;2023-11-19T09:00:00;-4.60;99.90
16158;DHT22;8184;60.256;18.694;2023-11-19T09:02:31;-4.60;99.90
16158;DHT22;8184;60.256;18.694;2023-11-19T09:04:59;-4.70;99.90
16158;DHT22;8184;60.256;18.694;2023-11-19T09:07:28;-4.60;99.90
16158;DHT22;8184;60.256;18.694;2023-11-19T09:09:57;-4.70;99.90
16158;DHT22;8184;60.256;18.694;2023-11-19T09:12:25;-4.60;99.90
16158;DHT22;8184;60.256;18.694;2023-11-19T09:14:53;-4.60;99.90
16158;DHT22;8184;60.256;18.694;2023-11-19T09:17:21;-4.60;99.90
16158;DHT22;8184;60.256;18.694;2023-11-19T09:19:52;-4.60;99.90
16158;DHT22;8184;60.256;18.694;2023-11-19T09:22:20;-4.60;99.90
16158;DHT22;8184;60.256;18.694;2023-11-19T09:24:48;-4.70;99.90
16158;DHT22;8184;60.256;18.694;2023-11-19T09:27:19;-4.80;99.90
16158;DHT22;8184;60.256;18.694;2023-11-19T09:29:48;-4.60;99.90
16158;DHT22;8184;60.256;18.694;2023-11-19T09:32:21;-4.60;99.90
16158;DHT22;8184;60.256;18.694;2023-11-19T09:34:51;-4.70;99.90
16158;DHT22;8184;60.256;18.694;2023-11-19T09:37:19;-4.60;99.90
16158;DHT22;8184;60.256;18.694;2023-11-19T09:39:48;-4.60;99.90
16158;DHT22;8184;60.256;18.694;2023-11-19T09:42:16;-4.70;99.90
16158;DHT22;8184;60.256;18.694;2023-11-19T09:44:44;-4.50;99.90
16158;DHT22;8184;60.256;18.694;2023-11-19T09:47:14;-4.50;99.90
16158;DHT22;8184;60.256;18.694;2023-11-19T09:49:42;-4.50;99.90
16158;DHT22;8184;60.256;18.694;2023-11-19T09:52:12;-4.50;99.90
16158;DHT22;8184;60.256;18.694;2023-11-19T09:54:40;-4.50;99.90
16158;DHT22;8184;60.256;18.694;2023-11-19T09:57:09;-4.50;99.90
16158;DHT22;8184;60.256;18.694;2023-11-19T09:59:38;-4.40;99.90
16158;DHT22;8184;60.256;18.694;2023-11-19T10:02:07;-4.50;99.90
16158;DHT22;8184;60.256;18.694;2023-11-19T10:04:37;-4.70;99.90
16158;DHT22;8184;60.256;18.694;2023-11-19T10:07:06;-4.70;99.90
16158;DHT22;8184;60.256;18.694;2023-11-19T10:09:36;-4.70;99.90
16158;DHT22;8184;60.256;18.694;2023-11-19T10:12:05;-4.80;99.90
16158;DHT22;8184;60.256;18.694;2023-11-19T10:14:33;-5.10;99.90
16158;DHT22;8184;60.256;18.694;2023-11-19T10:17:04;-4.80;99.90
16158;DHT22;8184;60.256;18.694;2023-11-19T10:19:32;-4.90;99.90
16158;DHT22;8184;60.256;18.694;2023-11-19T10:22:02;-4.80;99.90
16158;DHT22;8184;60.256;18.694;2023-11-19T10:24:36;-4.80;99.90
16158;DHT22;8184;60.256;18.694;2023-11-19T10:27:09;-4.90;99.90
16158;DHT22;8184;60.256;18.694;2023-11-19T10:29:37;-4.90;99.90
16158;DHT22;8184;60.256;18.694;2023-11-19T10:32:05;-4.90;99.90
16158;DHT22;8184;60.256;18.694;2023-11-19T10:34:52;-4.80;99.90
16158;DHT22;8184;60.256;18.694;2023-11-19T10:37:31;-4.80;99.90
16158;DHT22;8184;60.256;18.694;2023-11-19T10:40:04;-4.80;99.90
16158;DHT22;8184;60.256;18.694;2023-11-19T10:42:33;-4.80;99.90
16158;DHT22;8184;60.256;18.694;2023-11-19T10:45:01;-4.80;99.90
16158;DHT22;8184;60.256;18.694;2023-11-19T10:47:29;-4.90;99.90
16158;DHT22;8184;60.256;18.694;2023-11-19T10:50:01;-4.80;99.90
16158;DHT22;8184;60.256;18.694;2023-11-19T10:52:29;-4.80;99.90
16158;DHT22;8184;60.256;18.694;2023-11-19T10:54:58;-4.80;99.90
16158;DHT22;8184;60.256;18.694;2023-11-19T10:57:30;-4.90;99.90
16158;DHT22;8184;60.256;18.694;2023-11-19T11:00:00;-4.80;99.90
16158;DHT22;8184;60.256;18.694;2023-11-19T11:02:30;-4.90;99.90
16158;DHT22;8184;60.256;18.694;2023-11-19T11:05:05;-4.90;99.90
16158;DHT22;8184;60.256;18.694;2023-11-19T11:07:33;-4.80;99.90
16158;DHT22;8184;60.256;18.694;2023-11-19T11:10:07;-5.20;99.90
16158;DHT22;8184;60.256;18.694;2023-11-19T11:12:38;-5.20;99.90
16158;DHT22;8184;60.256;18.694;2023-11-19T11:15:09;-5.10;99.90
16158;DHT22;8184;60.256;18.694;2023-11-19T11:17:39;-5.00;99.90
16158;DHT22;8184;60.256;18.694;2023-11-19T11:20:10;-4.90;99.90
16158;DHT22;8184;60.256;18.694;2023-11-19T11:22:42;-5.20;99.90
16158;DHT22;8184;60.256;18.694;2023-11-19T11:25:19;-4.90;99.90
16158;DHT22;8184;60.256;18.694;2023-11-19T11:27:57;-5.30;99.90
16158;DHT22;8184;60.256;18.694;2023-11-19T11:30:31;-5.30;99.90
16158;DHT22;8184;60.256;18.694;2023-11-19T11:33:06;-5.40;99.90
16158;DHT22;8184;60.256;18.694;2023-11-19T11:35:41;-5.50;99.90
16158;DHT22;8184;60.256;18.694;2023-11-19T11:38:13;-5.60;99.90
16158;DHT22;8184;60.256;18.694;2023-11-19T11:40:42;-5.30;99.90
16158;DHT22;8184;60.256;18.694;2023-11-19T11:45:58;-5.10;99.90
16158;DHT22;8184;60.256;18.694;2023-11-19T11:48:30;-5.00;99.90
16158;DHT22;8184;60.256;18.694;2023-11-19T11:51:01;-4.90;99.90
16158;DHT22;8184;60.256;18.694;2023-11-19T11:53:30;-4.80;99.90
16158;DHT22;8184;60.256;18.694;2023-11-19T11:55:58;-4.90;99.90
16158;DHT22;8184;60.256;18.694;2023-11-19T11:58:32;-5.10;99.90
16158;DHT22;8184;60.256;18.694;2023-11-19T12:01:03;-5.30;99.90
16158;DHT22;8184;60.256;18.694;2023-11-19T12:03:33;-5.30;99.90
16158;DHT22;8184;60.256;18.694;2023-11-19T12:06:02;-5.40;99.90
16158;DHT22;8184;60.256;18.694;2023-11-19T12:08:30;-5.30;99.90
16158;DHT22;8184;60.256;18.694;2023-11-19T12:11:19;-5.30;99.90
16158;DHT22;8184;60.256;18.694;2023-11-19T12:13:54;-5.20;99.90
16158;DHT22;8184;60.256;18.694;2023-11-19T12:16:31;-4.90;99.90
16158;DHT22;8184;60.256;18.694;2023-11-19T12:19:04;-4.80;99.90
16158;DHT22;8184;60.256;18.694;2023-11-19T12:21:34;-4.80;99.90
16158;DHT22;8184;60.256;18.694;2023-11-19T12:24:05;-4.70;99.90
16158;DHT22;8184;60.256;18.694;2023-11-19T12:26:35;-5.00;99.90
16158;DHT22;8184;60.256;18.694;2023-11-19T12:29:04;-5.10;99.90
16158;DHT22;8184;60.256;18.694;2023-11-19T12:31:37;-5.30;99.90
16158;DHT22;8184;60.256;18.694;2023-11-19T12:34:06;-5.50;99.90
16158;DHT22;8184;60.256;18.694;2023-11-19T12:36:39;-5.40;99.90
16158;DHT22;8184;60.256;18.694;2023-11-19T12:39:10;-5.10;99.90
16158;DHT22;8184;60.256;18.694;2023-11-19T12:41:52;-5.10;99.90
16158;DHT22;8184;60.256;18.694;2023-11-19T12:44:21;-5.20;99.90
16158;DHT22;8184;60.256;18.694;2023-11-19T12:47:04;-5.10;99.90
16158;DHT22;8184;60.256;18.694;2023-11-19T12:49:34;-4.90;99.90
16158;DHT22;8184;60.256;18.694;2023-11-19T12:52:02;-5.00;99.90
16158;DHT22;8184;60.256;18.694;2023-11-19T12:54:39;-5.00;99.90
16158;DHT22;8184;60.256;18.694;2023-11-19T12:57:07;-4.90;99.90
16158;DHT22;8184;60.256;18.694;2023-11-19T12:59:39;-5.00;99.90
16158;DHT22;8184;60.256;18.694;2023-11-19T13:02:09;-4.80;99.90
16158;DHT22;8184;60.256;18.694;2023-11-19T13:04:37;-4.80;99.90
16158;DHT22;8184;60.256;18.694;2023-11-19T13:07:05;-4.80;99.90
16158;DHT22;8184;60.256;18.694;2023-11-19T13:09:34;-4.80;99.90
16158;DHT22;8184;60.256;18.694;2023-11-19T13:12:12;-4.80;99.90
16158;DHT22;8184;60.256;18.694;2023-11-19T13:14:41;-4.80;99.90
16158;DHT22;8184;60.256;18.694;2023-11-19T13:17:15;-5.00;99.90
16158;DHT22;8184;60.256;18.694;2023-11-19T13:19:46;-5.10;99.90
16158;DHT22;8184;60.256;18.694;2023-11-19T13:22:15;-5.10;99.90
16158;DHT22;8184;60.256;18.694;2023-11-19T13:24:45;-5.10;99.90
16158;DHT22;8184;60.256;18.694;2023-11-19T13:27:19;-5.10;99.90
16158;DHT22;8184;60.256;18.694;2023-11-19T13:29:47;-5.00;99.90
16158;DHT22;8184;60.256;18.694;2023-11-19T13:32:17;-5.10;99.90
16158;DHT22;8184;60.256;18.694;2023-11-19T13:34:46;-4.90;99.90
16158;DHT22;8184;60.256;18.694;2023-11-19T13:37:14;-4.80;99.90
16158;DHT22;8184;60.256;18.694;2023-11-19T13:39:43;-4.80;99.90
16158;DHT22;8184;60.256;18.694;2023-11-19T13:42:11;-4.90;99.90
16158;DHT22;8184;60.256;18.694;2023-11-19T13:44:40;-4.80;99.90
16158;DHT22;8184;60.256;18.694;2023-11-19T13:47:09;-4.90;99.90
16158;DHT22;8184;60.256;18.694;2023-11-19T13:49:39;-4.90;99.90
16158;DHT22;8184;60.256;18.694;2023-11-19T13:52:07;-4.80;99.90
16158;DHT22;8184;60.256;18.694;2023-11-19T13:54:36;-4.90;99.90
16158;DHT22;8184;60.256;18.694;2023-11-19T13:57:04;-5.00;99.90
16158;DHT22;8184;60.256;18.694;2023-11-19T13:59:32;-5.00;99.90
16158;DHT22;8184;60.256;18.694;2023-11-19T14:02:01;-4.80;99.90
16158;DHT22;8184;60.256;18.694;2023-11-19T14:04:29;-5.00;99.90
16158;DHT22;8184;60.256;18.694;2023-11-19T14:06:59;-5.10;99.90
16158;DHT22;8184;60.256;18.694;2023-11-19T14:09:27;-5.10;99.90
16158;DHT22;8184;60.256;18.694;2023-11-19T14:11:56;-5.20;99.90
16158;DHT22;8184;60.256;18.694;2023-11-19T14:14:27;-5.30;99.90
16158;DHT22;8184;60.256;18.694;2023-11-19T14:16:55;-5.20;99.90
16158;DHT22;8184;60.256;18.694;2023-11-19T14:19:40;-5.00;99.90
16158;DHT22;8184;60.256;18.694;2023-11-19T14:22:09;-5.20;99.90
16158;DHT22;8184;60.256;18.694;2023-11-19T14:24:38;-5.10;99.90
16158;DHT22;8184;60.256;18.694;2023-11-19T14:27:08;-5.10;99.90
16158;DHT22;8184;60.256;18.694;2023-11-19T14:29:37;-5.30;99.90
16158;DHT22;8184;60.256;18.694;2023-11-19T14:32:06;-5.20;99.90
16158;DHT22;8184;60.256;18.694;2023-11-19T14:34:37;-5.10;99.90
16158;DHT22;8184;60.256;18.694;2023-11-19T14:37:05;-4.90;99.90
16158;DHT22;8184;60.256;18.694;2023-11-19T14:39:35;-4.90;99.90
16158;DHT22;8184;60.256;18.694;2023-11-19T14:42:03;-5.00;99.90
16158;DHT22;8184;60.256;18.694;2023-11-19T14:44:32;-5.00;99.90
16158;DHT22;8184;60.256;18.694;2023-11-19T14:47:00;-5.10;99.90
16158;DHT22;8184;60.256;18.694;2023-11-19T14:49:29;-5.30;99.90
16158;DHT22;8184;60.256;18.694;2023-11-19T14:51:57;-5.10;99.90
16158;DHT22;8184;60.256;18.694;2023-11-19T14:54:45;-5.00;99.90
16158;DHT22;8184;60.256;18.694;2023-11-19T14:57:13;-5.10;99.90
16158;DHT22;8184;60.256;18.694;2023-11-19T14:59:41;-5.10;99.90
16158;DHT22;8184;60.256;18.694;2023-11-19T15:02:10;-5.10;99.90
16158;DHT22;8184;60.256;18.694;2023-11-19T15:04:38;-5.10;99.90
16158;DHT22;8184;60.256;18.694;2023-11-19T15:07:08;-5.20;99.90
16158;DHT22;8184;60.256;18.694;2023-11-19T15:09:37;-5.20;99.90
16158;DHT22;8184;60.256;18.694;2023-11-19T15:12:07;-5.30;99.90
16158;DHT22;8184;60.256;18.694;2023-11-19T15:14:36;-5.30;99.90
16158;DHT22;8184;60.256;18.694;2023-11-19T15:17:04;-5.30;99.90
16158;DHT22;8184;60.256;18.694;2023-11-19T15:19:34;-5.30;99.90
16158;DHT22;8184;60.256;18.694;2023-11-19T15:22:03;-5.30;99.90
16158;DHT22;8184;60.256;18.694;2023-11-19T15:24:32;-5.30;99.90
16158;DHT22;8184;60.256;18.694;2023-11-19T15:27:03;-5.20;99.90
16158;DHT22;8184;60.256;18.694;2023-11-19T15:29:36;-5.20;99.90
16158;DHT22;8184;60.256;18.694;2023-11-19T15:32:06;-5.20;99.90
16158;DHT22;8184;60.256;18.694;2023-11-19T15:34:35;-5.10;99.90
16158;DHT22;8184;60.256;18.694;2023-11-19T15:37:05;-5.10;99.90
16158;DHT22;8184;60.256;18.694;2023-11-19T15:39:33;-5.10;99.90
16158;DHT22;8184;60.256;18.694;2023-11-19T15:42:03;-5.10;99.90
16158;DHT22;8184;60.256;18.694;2023-11-19T15:44:31;-5.10;99.90
16158;DHT22;8184;60.256;18.694;2023-11-19T15:47:01;-5.00;99.90
16158;DHT22;8184;60.256;18.694;2023-11-19T15:49:29;-5.00;99.90